Chaoyang, China
Current Conditions -  °F | °C
As of 10:30 PM on Friday 28 Nov 2014 (Local Time) from ZYTX Reporting Station
Smoke Smoke  
Wind Chill: 23°   Ceiling: Unl
Heat Index: 23°   Visibility: 2.5mi
Dew Point: 14°   Wind: 2mph
Humidity: 68%   Direction: 140°SE
Pressure: 30.12"   Gusts: NA
Location:  41.55°N, 120.42°E
Report Text: ZYTX 281430Z 14001MPS 4000 FU NSC M05/M10 Q1020 NOSIG
Loading
Personal Weather Stations






























Interactive Weather Map New forecast layout! Learn more

10-Day Weather Forecast

Advertisements
Track Severe Weather on mobile